createdAt,value
2022-09-05T00:00:25.099Z,3.60
2022-09-05T00:06:01.847Z,3.20
2022-09-05T00:08:42.878Z,3.03
2022-09-05T00:11:42.434Z,2.67
2022-09-05T00:14:34.311Z,3.80
2022-09-05T00:18:11.968Z,3.00
2022-09-05T00:24:22.454Z,4.37
2022-09-05T00:24:29.711Z,3.60
2022-09-05T00:26:31.087Z,3.77
2022-09-05T00:29:11.076Z,3.47
2022-09-05T00:31:57.791Z,3.20
2022-09-05T00:34:47.209Z,2.70
2022-09-05T00:37:30.207Z,2.40
2022-09-05T00:40:21.359Z,3.53
2022-09-05T00:42:54.742Z,2.97
2022-09-05T00:45:36.150Z,3.27
2022-09-05T00:48:17.342Z,3.03
2022-09-05T00:50:59.326Z,2.60
2022-09-05T00:53:37.338Z,4.23
2022-09-05T00:56:21.821Z,2.70
2022-09-05T00:59:05.110Z,4.03
2022-09-05T01:01:47.184Z,3.00
2022-09-05T01:04:30.656Z,3.83
2022-09-05T01:07:34.383Z,4.27
2022-09-05T01:10:23.614Z,2.87
2022-09-05T01:13:07.237Z,3.90
2022-09-05T01:15:45.590Z,3.93
2022-09-05T01:18:32.755Z,2.40
2022-09-05T01:21:28.251Z,3.27
2022-09-05T01:24:10.899Z,3.57
2022-09-05T01:26:54.597Z,4.77
2022-09-05T01:29:34.080Z,4.07
2022-09-05T01:32:21.468Z,4.63
2022-09-05T01:35:25.796Z,3.10
2022-09-05T01:38:01.531Z,2.77
2022-09-05T01:40:51.593Z,2.60
2022-09-05T01:43:54.431Z,3.40
2022-09-05T01:46:35.881Z,2.80
2022-09-05T01:49:16.802Z,3.40
2022-09-05T01:51:56.618Z,2.63
2022-09-05T01:54:39.990Z,2.03
2022-09-05T01:57:20.449Z,2.50
2022-09-05T01:59:56.701Z,4.80
2022-09-05T02:02:39.561Z,2.83
2022-09-05T02:05:47.503Z,3.07
2022-09-05T02:08:25.014Z,4.07
2022-09-05T02:11:06.632Z,3.90
2022-09-05T02:13:57.007Z,4.53
2022-09-05T02:16:43.817Z,3.75
2022-09-05T02:19:20.582Z,4.80
2022-09-05T02:22:01.388Z,4.47
2022-09-05T02:24:37.666Z,4.00
2022-09-05T02:27:35.905Z,4.10
2022-09-05T02:30:12.683Z,5.50
2022-09-05T02:32:50.426Z,4.00
2022-09-05T02:35:27.975Z,6.40
2022-09-05T02:40:53.516Z,4.67
2022-09-05T02:45:12.203Z,5.57
2022-09-05T02:45:24.352Z,4.97
2022-09-05T02:46:56.714Z,5.40
2022-09-05T02:51:09.610Z,3.30
2022-09-05T02:57:35.751Z,3.50
2022-09-05T02:57:37.625Z,5.33
2022-09-05T02:58:59.297Z,3.57
2022-09-05T03:01:45.539Z,3.13
2022-09-05T03:07:09.478Z,5.17
2022-09-05T03:09:55.368Z,3.60
2022-09-05T03:13:01.888Z,4.70
2022-09-05T03:16:20.027Z,3.20
2022-09-05T03:19:40.730Z,3.10
2022-09-05T03:22:48.946Z,3.53
2022-09-05T03:25:59.232Z,3.67
2022-09-05T03:29:14.571Z,4.68
2022-09-05T03:32:22.040Z,2.87
2022-09-05T03:35:29.186Z,4.00
2022-09-05T03:38:25.382Z,4.20
2022-09-05T03:41:13.301Z,3.50
2022-09-05T03:43:59.712Z,3.47
2022-09-05T03:46:49.272Z,2.60
2022-09-05T03:53:11.459Z,4.70
2022-09-05T03:57:14.938Z,3.77
2022-09-05T03:57:15.963Z,4.03
2022-09-05T03:59:23.066Z,3.03
2022-09-05T04:08:05.721Z,5.10
2022-09-05T04:08:17.041Z,4.67
2022-09-05T04:08:29.250Z,4.70
2022-09-05T04:10:57.145Z,7.27
2022-09-05T04:13:34.397Z,4.37
2022-09-05T04:16:08.879Z,5.30
2022-09-05T04:18:46.123Z,6.93
2022-09-05T04:21:20.034Z,6.60
2022-09-05T04:24:10.536Z,6.67
2022-09-05T04:26:55.695Z,7.90
2022-09-05T04:29:35.686Z,9.17
2022-09-05T04:32:19.173Z,8.35
2022-09-05T04:35:03.998Z,8.17
2022-09-05T04:37:48.558Z,10.37
2022-09-05T04:40:39.414Z,41.53
2022-09-05T04:43:11.316Z,7.68
2022-09-05T04:45:45.049Z,12.40
2022-09-05T04:48:21.344Z,9.50
2022-09-05T04:51:12.925Z,11.53
2022-09-05T04:54:02.698Z,11.27
2022-09-05T04:56:40.693Z,11.40
2022-09-05T05:01:32.479Z,12.52
2022-09-05T05:06:01.061Z,36.03
2022-09-05T05:06:15.111Z,22.05
2022-09-05T05:08:06.636Z,18.33
2022-09-05T05:16:22.228Z,16.13
2022-09-05T05:17:59.916Z,16.57
2022-09-05T05:18:13.757Z,11.10
2022-09-05T05:19:22.226Z,12.07
2022-09-05T05:21:52.933Z,10.97
2022-09-05T05:24:28.593Z,8.10
2022-09-05T05:27:05.545Z,10.57
2022-09-05T05:29:45.138Z,7.53
2022-09-05T05:32:28.165Z,9.30
2022-09-05T05:35:16.046Z,6.27
2022-09-05T05:37:47.354Z,5.70
2022-09-05T05:40:27.488Z,4.60
2022-09-05T05:43:15.507Z,5.07
2022-09-05T05:45:47.673Z,7.20
2022-09-05T05:48:30.976Z,4.03
2022-09-05T05:51:13.983Z,6.25
2022-09-05T05:53:52.278Z,5.32
2022-09-05T05:56:51.694Z,3.63
2022-09-05T05:59:57.704Z,4.35
2022-09-05T06:03:24.814Z,3.70
2022-09-05T06:06:22.712Z,3.75
2022-09-05T06:14:48.344Z,3.47
2022-09-05T06:15:02.057Z,3.38
2022-09-05T06:16:17.029Z,2.90
2022-09-05T06:19:16.246Z,4.80
2022-09-05T06:22:22.545Z,3.30
2022-09-05T06:25:34.897Z,5.03
2022-09-05T06:28:18.428Z,3.20
2022-09-05T06:31:19.725Z,1.83
2022-09-05T06:34:04.541Z,2.70
2022-09-05T06:36:46.852Z,4.72
2022-09-05T06:39:22.016Z,3.20
2022-09-05T06:42:31.947Z,1.67
2022-09-05T06:45:27.479Z,2.78
2022-09-05T06:48:06.037Z,2.40
2022-09-05T06:51:07.508Z,1.90
2022-09-05T06:54:07.334Z,3.30
2022-09-05T06:57:07.640Z,2.65
2022-09-05T07:00:17.558Z,2.50
2022-09-05T07:03:10.962Z,3.15
2022-09-05T07:05:45.739Z,1.48
2022-09-05T07:08:34.892Z,2.15
2022-09-05T07:45:13.847Z,0.97
2022-09-05T07:47:51.318Z,4.47
2022-09-05T07:53:44.998Z,0.90
2022-09-05T07:57:00.801Z,2.20
2022-09-05T07:57:03.982Z,2.60
2022-09-05T07:58:56.870Z,3.87
2022-09-05T08:01:27.863Z,1.17
2022-09-05T08:03:59.158Z,7.32
2022-09-05T08:06:37.616Z,2.80
2022-09-05T08:10:06.772Z,3.28
2022-09-05T08:12:28.750Z,2.38
2022-09-05T08:15:06.671Z,5.63
2022-09-05T08:18:00.537Z,4.22
2022-09-05T08:20:39.929Z,4.10
2022-09-05T08:23:23.043Z,0.80
2022-09-05T08:25:59.155Z,1.20
2022-09-05T08:28:41.791Z,3.40
2022-09-05T08:31:14.398Z,1.15
2022-09-05T08:33:50.381Z,1.02
2022-09-05T08:36:30.363Z,1.70
2022-09-05T08:39:03.570Z,0.95
2022-09-05T08:41:51.233Z,1.10
2022-09-05T08:46:41.610Z,0.80
2022-09-05T08:47:32.427Z,0.80
2022-09-05T08:50:34.863Z,2.65
2022-09-05T08:53:45.961Z,0.93
2022-09-05T08:56:20.513Z,0.60
2022-09-05T08:59:28.318Z,0.63
2022-09-05T09:02:45.173Z,1.38
2022-09-05T09:05:14.136Z,1.15
2022-09-05T09:07:54.678Z,0.50
2022-09-05T09:10:38.997Z,1.63
2022-09-05T09:13:28.591Z,2.38
2022-09-05T09:16:06.642Z,0.70
2022-09-05T09:18:47.324Z,0.80
2022-09-05T09:24:07.125Z,2.88
2022-09-05T09:26:43.357Z,1.33
2022-09-05T09:29:20.409Z,6.32
2022-09-05T09:32:00.796Z,3.00
2022-09-05T09:34:39.827Z,6.90
2022-09-05T09:37:50.668Z,10.00
2022-09-05T09:40:39.984Z,1.38
2022-09-05T09:43:25.627Z,1.65
2022-09-05T09:46:16.196Z,2.03
2022-09-05T09:52:02.264Z,0.85
2022-09-05T09:55:21.468Z,0.52
2022-09-05T09:58:14.668Z,0.63
2022-09-05T10:00:52.266Z,0.55
2022-09-05T10:07:35.448Z,1.45
2022-09-05T10:10:49.907Z,0.30
2022-09-05T10:11:09.665Z,0.45
2022-09-05T10:13:23.880Z,0.47
2022-09-05T10:16:41.387Z,0.40
2022-09-05T10:20:13.449Z,1.05
2022-09-05T10:22:57.975Z,0.30
2022-09-05T10:25:44.989Z,1.02
2022-09-05T10:28:29.232Z,1.20
2022-09-05T10:32:20.717Z,3.03
2022-09-05T10:35:14.386Z,0.30
2022-09-05T10:37:07.260Z,2.83
2022-09-05T10:39:41.411Z,0.52
2022-09-05T10:42:15.495Z,1.63
2022-09-05T10:44:50.127Z,0.40
2022-09-05T10:47:32.711Z,1.67
2022-09-05T10:50:13.033Z,0.32
2022-09-05T10:53:01.400Z,1.33
2022-09-05T10:55:38.774Z,5.68
2022-09-05T10:58:23.467Z,0.60
2022-09-05T11:02:21.117Z,0.28
2022-09-05T11:04:15.778Z,0.45
2022-09-05T11:07:04.136Z,1.63
2022-09-05T11:09:48.734Z,0.50
2022-09-05T11:12:42.586Z,0.20
2022-09-05T11:15:26.001Z,1.73
2022-09-05T11:17:57.813Z,0.77
2022-09-05T11:20:42.456Z,0.55
2022-09-05T11:23:25.134Z,0.88
2022-09-05T11:26:02.068Z,0.75
2022-09-05T11:28:52.398Z,0.30
2022-09-05T11:31:44.783Z,0.55
2022-09-05T11:39:50.924Z,0.50
2022-09-05T11:40:00.587Z,0.30
2022-09-05T11:41:07.922Z,0.57
2022-09-05T11:44:25.611Z,0.40
2022-09-05T11:47:28.629Z,0.30
2022-09-05T11:50:21.314Z,0.47
2022-09-05T11:53:20.765Z,0.80
2022-09-05T11:56:38.329Z,0.52
2022-09-05T12:00:31.848Z,1.40
2022-09-05T12:03:59.874Z,0.50
2022-09-05T12:06:59.564Z,0.50
2022-09-05T12:09:42.770Z,3.33
2022-09-05T12:12:39.614Z,0.47
2022-09-05T12:15:25.267Z,0.95
2022-09-05T12:18:28.921Z,0.90
2022-09-05T12:21:19.416Z,0.30
2022-09-05T12:25:15.651Z,0.30
2022-09-05T12:27:40.469Z,1.60
2022-09-05T12:29:46.957Z,0.60
2022-09-05T12:34:43.993Z,1.60
2022-09-05T12:36:07.080Z,0.90
2022-09-05T12:40:43.205Z,4.05
2022-09-05T12:41:46.269Z,0.40
2022-09-05T12:44:42.314Z,0.40
2022-09-05T12:47:16.623Z,0.77
2022-09-05T12:50:02.811Z,0.50
2022-09-05T12:52:44.441Z,0.50
2022-09-05T12:55:26.135Z,0.47
2022-09-05T13:03:03.907Z,0.47
2022-09-05T13:03:10.868Z,0.70
2022-09-05T13:06:40.083Z,0.47
2022-09-05T13:09:19.670Z,0.52
2022-09-05T13:14:54.899Z,1.83
2022-09-05T13:15:22.770Z,0.60
2022-09-05T13:17:51.442Z,0.38
2022-09-05T13:20:34.363Z,0.50
2022-09-05T13:23:11.130Z,0.40
2022-09-05T13:25:43.402Z,0.43
2022-09-05T13:28:15.501Z,0.40
2022-09-05T13:36:40.723Z,1.63
2022-09-05T13:37:58.254Z,1.17
2022-09-05T13:38:03.627Z,1.73
2022-09-05T13:39:50.938Z,0.68
2022-09-05T13:42:21.887Z,2.75
2022-09-05T13:44:54.671Z,0.63
2022-09-05T13:47:46.483Z,0.30
2022-09-05T13:50:23.154Z,2.08
2022-09-05T13:52:58.222Z,0.50
2022-09-05T13:55:54.862Z,0.35
2022-09-05T13:58:41.661Z,0.65
2022-09-05T14:01:45.642Z,3.50
2022-09-05T14:05:16.245Z,0.75
2022-09-05T14:08:17.831Z,1.95
2022-09-05T14:11:07.428Z,0.50
2022-09-05T14:13:56.359Z,2.00
2022-09-05T14:16:50.683Z,0.73
2022-09-05T14:19:43.500Z,1.35
2022-09-05T14:22:20.289Z,0.47
2022-09-05T14:24:58.198Z,0.85
2022-09-05T14:27:32.193Z,0.90
2022-09-05T14:31:13.550Z,0.65
2022-09-05T14:37:46.093Z,1.80
2022-09-05T14:38:01.357Z,1.65
2022-09-05T14:39:34.816Z,0.40
2022-09-05T14:42:23.972Z,0.50
2022-09-05T14:45:26.197Z,0.93
2022-09-05T14:48:13.334Z,0.40
2022-09-05T14:50:59.574Z,0.88
2022-09-05T14:57:38.417Z,0.80
2022-09-05T15:02:44.210Z,0.40
2022-09-05T15:02:49.442Z,0.80
2022-09-05T15:05:21.001Z,3.13
2022-09-05T15:07:55.311Z,2.13
2022-09-05T15:12:19.699Z,2.10
2022-09-05T15:13:26.206Z,0.50
2022-09-05T15:18:33.321Z,1.85
2022-09-05T15:21:34.335Z,0.52
2022-09-05T15:24:07.887Z,1.52
2022-09-05T15:26:51.986Z,0.98
2022-09-05T15:29:23.711Z,1.67
2022-09-05T15:32:08.947Z,1.60
2022-09-05T15:34:38.332Z,2.75
2022-09-05T15:37:23.006Z,1.65
2022-09-05T15:40:03.721Z,0.47
2022-09-05T15:42:37.532Z,1.08
2022-09-05T15:45:11.683Z,2.88
2022-09-05T15:47:47.313Z,1.45
2022-09-05T15:50:22.190Z,0.68
2022-09-05T15:52:55.995Z,0.45
2022-09-05T15:55:28.532Z,0.90
2022-09-05T15:58:03.327Z,1.90
2022-09-05T16:00:54.491Z,0.57
2022-09-05T16:03:55.271Z,0.55
2022-09-05T16:10:28.487Z,0.70
2022-09-05T16:10:57.779Z,0.50
2022-09-05T16:12:31.727Z,0.50
2022-09-05T16:17:19.814Z,0.50
2022-09-05T16:23:19.048Z,0.90
2022-09-05T16:23:27.784Z,1.80
2022-09-05T16:23:58.055Z,0.50
2022-09-05T16:26:39.618Z,0.43
2022-09-05T16:29:26.501Z,1.75
2022-09-05T16:32:19.009Z,0.50
2022-09-05T16:34:54.796Z,1.80
2022-09-05T16:37:29.202Z,1.83
2022-09-05T16:40:03.195Z,2.25
2022-09-05T16:42:46.753Z,1.27
2022-09-05T16:45:33.315Z,2.25
2022-09-05T16:48:26.587Z,0.63
2022-09-05T16:51:15.052Z,1.13
2022-09-05T16:53:58.235Z,1.08
2022-09-05T16:56:55.954Z,0.73
2022-09-05T16:59:28.475Z,1.13
2022-09-05T17:02:15.501Z,2.70
2022-09-05T17:05:14.098Z,0.50
2022-09-05T17:08:25.337Z,2.03
2022-09-05T17:11:04.916Z,1.23
2022-09-05T17:13:44.943Z,1.40
2022-09-05T17:16:24.057Z,1.30
2022-09-05T17:19:05.570Z,1.77
2022-09-05T17:29:17.569Z,0.60
2022-09-05T17:29:34.488Z,2.60
2022-09-05T17:29:44.142Z,1.10
2022-09-05T17:36:22.703Z,1.27
2022-09-05T17:39:44.324Z,1.50
2022-09-05T17:42:32.210Z,3.73
2022-09-05T17:45:15.329Z,0.90
2022-09-05T17:47:51.263Z,1.57
2022-09-05T17:50:23.795Z,5.90
2022-09-05T17:53:26.112Z,1.80
2022-09-05T17:56:32.498Z,2.93
2022-09-05T17:59:32.611Z,1.77
2022-09-05T18:02:40.877Z,1.92
2022-09-05T18:06:06.866Z,2.03
2022-09-05T18:09:08.862Z,4.63
2022-09-05T18:11:44.757Z,2.43
2022-09-05T18:14:50.140Z,3.43
2022-09-05T18:18:05.216Z,1.47
2022-09-05T18:20:50.644Z,1.60
2022-09-05T18:23:54.139Z,2.70
2022-09-05T18:26:27.469Z,3.40
2022-09-05T18:29:06.709Z,1.10
2022-09-05T18:32:00.271Z,2.27
2022-09-05T18:34:49.175Z,2.60
2022-09-05T18:37:50.465Z,5.90
2022-09-05T18:40:58.690Z,7.27
2022-09-05T18:44:12.386Z,3.70
2022-09-05T18:46:46.486Z,2.70
2022-09-05T18:50:23.315Z,3.97
2022-09-05T18:52:23.206Z,3.40
2022-09-05T18:55:30.100Z,2.60
2022-09-05T18:57:57.928Z,2.23
2022-09-05T19:00:43.913Z,2.88
2022-09-05T19:03:27.911Z,3.23
2022-09-05T19:06:35.032Z,2.50
2022-09-05T19:09:00.156Z,3.77
2022-09-05T19:14:28.665Z,3.27
2022-09-05T19:17:08.444Z,3.57
2022-09-05T19:20:30.819Z,3.50
2022-09-05T19:23:10.444Z,3.03
2022-09-05T19:25:46.063Z,2.57
2022-09-05T19:36:44.223Z,2.80
2022-09-05T19:36:56.445Z,2.63
2022-09-05T19:37:04.609Z,2.37
2022-09-05T19:47:25.532Z,6.10
2022-09-05T19:47:42.806Z,2.23
2022-09-05T19:47:55.889Z,3.53
2022-09-05T19:48:29.886Z,4.35
2022-09-05T19:51:16.815Z,3.70
2022-09-05T19:54:04.889Z,2.57
2022-09-05T19:56:37.766Z,2.23
2022-09-05T19:59:19.106Z,3.27
2022-09-05T20:01:48.228Z,4.23
2022-09-05T20:04:19.058Z,2.90
2022-09-05T20:06:50.697Z,2.70
2022-09-05T20:09:22.737Z,3.50
2022-09-05T20:11:54.906Z,3.57
2022-09-05T20:14:26.744Z,3.63
2022-09-05T20:16:58.277Z,2.17
2022-09-05T20:19:33.556Z,3.43
2022-09-05T20:22:45.190Z,2.47
2022-09-05T20:24:58.194Z,3.87
2022-09-05T20:29:59.931Z,4.07
2022-09-05T20:32:39.006Z,11.93
2022-09-05T20:36:57.914Z,12.02
2022-09-05T20:43:19.662Z,15.50
2022-09-05T20:43:28.032Z,10.57
2022-09-05T20:50:48.365Z,8.33
2022-09-05T20:54:20.152Z,5.67
2022-09-05T20:55:37.855Z,5.50
2022-09-05T20:57:51.283Z,5.37
2022-09-05T21:00:23.141Z,6.60
2022-09-05T21:02:56.009Z,6.53
2022-09-05T21:05:32.115Z,7.47
2022-09-05T21:08:32.537Z,6.67
2022-09-05T21:11:03.424Z,5.38
2022-09-05T21:13:33.173Z,3.80
2022-09-05T21:16:01.384Z,5.63
2022-09-05T21:18:33.452Z,5.83
2022-09-05T21:21:28.960Z,4.20
2022-09-05T21:24:17.766Z,4.90
2022-09-05T21:26:49.614Z,4.37
2022-09-05T21:29:32.337Z,4.43
2022-09-05T21:32:10.699Z,4.20
2022-09-05T21:34:46.052Z,4.80
2022-09-05T21:37:17.559Z,3.47
2022-09-05T21:39:58.301Z,3.27
2022-09-05T21:47:30.822Z,3.10
2022-09-05T21:47:38.728Z,3.67
2022-09-05T21:48:15.080Z,3.27
2022-09-05T21:50:46.964Z,3.67
2022-09-05T21:56:40.236Z,3.27
2022-09-05T21:59:18.012Z,3.07
2022-09-05T21:59:27.856Z,4.77
2022-09-05T22:02:02.917Z,4.75
2022-09-05T22:04:37.148Z,3.28
2022-09-05T22:07:11.170Z,2.50
2022-09-05T22:09:41.116Z,3.03
2022-09-05T22:12:26.943Z,4.53
2022-09-05T22:15:27.857Z,4.37
2022-09-05T22:17:54.244Z,2.63
2022-09-05T22:20:30.871Z,2.20
2022-09-05T22:22:58.761Z,2.40
2022-09-05T22:25:29.873Z,3.43
2022-09-05T22:28:08.657Z,2.20
2022-09-05T22:30:36.709Z,3.43
2022-09-05T22:33:07.842Z,3.77
2022-09-05T22:35:40.698Z,3.07
2022-09-05T22:38:17.834Z,4.60
2022-09-05T22:40:50.813Z,5.63
2022-09-05T22:43:22.035Z,4.17
2022-09-05T22:45:58.278Z,3.03
2022-09-05T22:48:28.400Z,4.00
2022-09-05T22:50:56.474Z,2.45
2022-09-05T22:53:26.338Z,3.00
2022-09-05T22:55:57.966Z,2.10
2022-09-05T22:58:27.886Z,2.77
2022-09-05T23:00:55.894Z,2.40
2022-09-05T23:03:25.946Z,2.80
2022-09-05T23:05:56.060Z,3.50
2022-09-05T23:08:24.075Z,3.78
2022-09-05T23:10:54.121Z,3.67
2022-09-05T23:13:23.793Z,2.42
2022-09-05T23:15:53.162Z,2.50
2022-09-05T23:18:25.131Z,2.73
2022-09-05T23:20:52.941Z,3.90
2022-09-05T23:23:21.046Z,2.17
2022-09-05T23:25:52.854Z,3.30
2022-09-05T23:28:20.766Z,3.33
2022-09-05T23:30:49.359Z,3.60
2022-09-05T23:33:20.786Z,2.87
2022-09-05T23:35:48.561Z,5.67
2022-09-05T23:38:16.418Z,5.43
2022-09-05T23:40:48.353Z,2.50
2022-09-05T23:43:16.167Z,2.17
2022-09-05T23:45:51.791Z,2.70
2022-09-05T23:48:21.084Z,3.60
2022-09-05T23:50:49.036Z,2.53
2022-09-05T23:53:20.859Z,4.03
2022-09-05T23:55:49.193Z,2.73
2022-09-05T23:58:17.416Z,4.63
